Main page
METAR-TAF:

METAR-TAF

Airports :

Kiruna Airport

Kiruna, Sweden

latitude: 67-49N, longitude: 020-20E, elevation: 452 m

Current weather observation

The report was made 20 minutes ago, at 00:50 UTC
Wind 5 kt from the South/Southwest
Temperature -11°C
Humidity 85%
Pressure 967 hPa
Visibility 10 km or more

METAR: ESNQ 180050Z AUTO 20005KT 9999 OVC072/// M11/M13 Q0967

Time: 02:10 (01:10 UTC)

Forecast

The report was made 4 hours and 40 minutes ago, at 20:30 UTC
Forecast valid from 17 at 21 UTC to 17 at 23 UTC
Wind 7 kt from the West/Southwest
Visibility 10 km or more
no clouds below 1500 m and no cumulonimbus

TAF: ESNQ 172030Z 1721/1723 24007KT CAVOK

Weather observations and forecasts of more than 4000 airports (METAR and TAF reports).

The available stations are represented by yellow and red dots on the map.

Hover mouse over dot to see the name of the station.

Then click to see weather observations and forecasts.

To change the map : click on the green buttons with a black cross to zoom in, on the green button with a dash to zoom out, or on the green arrows for adjacent maps.


METAR-TAF: